Time;durP1;ratioP1;P1;durP2;ratioP2;P2;SDS_P1;SDS_P2;PMS_P1;PMS_P2;Temp;Humidity;BMP_temperature;BMP_pressure;BME280_temperature;BME280_humidity;BME280_pressure;Samples;Min_cycle;Max_cycle;Signal;HPM_P1;HPM_P2
2022/08/26 00:01:27;;;;;;;5.93;2.35;;;;;;;;;;5010717;28;20054;-73
2022/08/26 00:03:53;;;;;;;8.45;2.30;;;;;;;;;;5012173;28;20052;-73
2022/08/26 00:06:19;;;;;;;6.82;2.20;;;;;;;;;;5011466;28;20046;-73
2022/08/26 00:08:45;;;;;;;5.90;2.42;;;;;;;;;;5011603;28;20483;-74
2022/08/26 00:11:12;;;;;;;10.95;2.42;;;;;;;;;;5011339;28;20220;-76
2022/08/26 00:13:39;;;;;;;6.13;2.20;;;;;;;;;;4995047;28;20083;-73
2022/08/26 00:16:06;;;;;;;9.95;2.22;;;;;;;;;;5012361;28;20233;-73
2022/08/26 00:18:33;;;;;;;4.75;2.10;;;;;;;;;;5013675;28;20416;-73
2022/08/26 00:20:59;;;;;;;5.80;2.00;;;;;;;;;;5013785;28;20046;-75
2022/08/26 00:23:25;;;;;;;5.20;2.22;;;;;;;;;;4995188;28;20070;-73
2022/08/26 00:25:52;;;;;;;6.90;2.03;;;;;;;;;;5008799;28;20054;-74
2022/08/26 00:28:19;;;;;;;5.82;2.22;;;;;;;;;;5006095;28;20530;-72
2022/08/26 00:30:47;;;;;;;5.75;2.38;;;;;;;;;;5012739;28;20129;-73
2022/08/26 00:33:15;;;;;;;5.72;2.53;;;;;;;;;;5012617;28;20073;-73
2022/08/26 00:35:41;;;;;;;8.18;2.35;;;;;;;;;;5011985;28;20054;-74
2022/08/26 00:38:07;;;;;;;6.35;2.40;;;;;;;;;;5013214;28;20125;-74
2022/08/26 00:40:37;;;;;;;7.50;2.50;;;;;;;;;;5015825;28;20510;-77
2022/08/26 00:43:04;;;;;;;6.28;2.50;;;;;;;;;;5014757;28;20049;-74
2022/08/26 00:45:46;;;;;;;7.80;2.30;;;;;;;;;;5015205;28;20495;-75
2022/08/26 00:48:15;;;;;;;3.63;2.10;;;;;;;;;;5015561;28;20444;-74
2022/08/26 00:50:54;;;;;;;9.63;2.50;;;;;;;;;;5015286;28;20097;-73
2022/08/26 00:53:24;;;;;;;7.53;2.17;;;;;;;;;;5015238;28;20427;-74
2022/08/26 00:56:06;;;;;;;8.63;2.65;;;;;;;;;;5014362;28;20503;-75
2022/08/26 00:58:36;;;;;;;6.53;2.30;;;;;;;;;;5014978;28;20068;-73
2022/08/26 01:01:01;;;;;;;4.65;2.08;;;;;;;;;;4996118;28;20495;-73
2022/08/26 01:03:32;;;;;;;4.68;2.30;;;;;;;;;;4996647;28;20117;-73
2022/08/26 01:06:01;;;;;;;6.63;2.10;;;;;;;;;;5013909;28;20057;-73
2022/08/26 01:08:27;;;;;;;5.07;2.45;;;;;;;;;;5013308;28;20132;-71
2022/08/26 01:10:54;;;;;;;5.57;2.28;;;;;;;;;;5013002;28;20096;-73
2022/08/26 01:13:21;;;;;;;7.07;2.40;;;;;;;;;;5014113;28;20100;-73
2022/08/26 01:15:50;;;;;;;9.77;2.58;;;;;;;;;;5014075;28;20050;-72
2022/08/26 01:18:16;;;;;;;6.22;2.55;;;;;;;;;;5014165;28;20452;-74
2022/08/26 01:20:57;;;;;;;7.07;2.67;;;;;;;;;;5015226;28;20045;-73
2022/08/26 01:23:27;;;;;;;4.97;2.33;;;;;;;;;;5017561;28;20069;-75
2022/08/26 01:25:58;;;;;;;8.25;2.25;;;;;;;;;;5017572;28;20073;-72
2022/08/26 01:28:28;;;;;;;6.68;2.13;;;;;;;;;;4997343;28;20049;-75
2022/08/26 01:30:56;;;;;;;8.32;2.50;;;;;;;;;;5013606;28;20034;-70
2022/08/26 01:33:31;;;;;;;8.13;2.30;;;;;;;;;;4995982;28;20064;-73
2022/08/26 01:35:57;;;;;;;10.07;2.10;;;;;;;;;;5013591;28;20070;-72
2022/08/26 01:38:23;;;;;;;6.32;2.28;;;;;;;;;;5012846;28;20065;-72
2022/08/26 01:40:50;;;;;;;5.47;2.38;;;;;;;;;;5013875;28;20050;-73
2022/08/26 01:43:21;;;;;;;6.63;2.67;;;;;;;;;;5014232;28;20117;-72
2022/08/26 01:45:48;;;;;;;10.63;2.50;;;;;;;;;;4996244;28;20092;-72
2022/08/26 01:48:18;;;;;;;7.95;2.40;;;;;;;;;;5012949;28;20518;-72
2022/08/26 01:50:45;;;;;;;5.47;2.20;;;;;;;;;;5012192;28;20046;-72
2022/08/26 01:53:15;;;;;;;6.13;2.17;;;;;;;;;;4993828;28;20053;-73
2022/08/26 01:55:45;;;;;;;4.95;2.10;;;;;;;;;;4992826;28;20472;-73
2022/08/26 01:58:19;;;;;;;8.25;2.35;;;;;;;;;;4993909;28;20149;-72
2022/08/26 02:00:46;;;;;;;5.90;2.25;;;;;;;;;;4996705;28;20499;-73
2022/08/26 02:03:17;;;;;;;3.78;1.98;;;;;;;;;;4996436;28;20124;-73
2022/08/26 02:06:05;;;;;;;7.50;2.65;;;;;;;;;;4995749;28;20046;-73
2022/08/26 02:08:41;;;;;;;5.60;1.98;;;;;;;;;;4999529;28;20050;-71
2022/08/26 02:11:07;;;;;;;7.28;2.38;;;;;;;;;;5012441;28;20049;-71
2022/08/26 02:13:43;;;;;;;6.30;2.28;;;;;;;;;;5013072;28;20107;-74
2022/08/26 02:16:10;;;;;;;5.13;2.03;;;;;;;;;;5013404;28;20052;-72
2022/08/26 02:18:39;;;;;;;7.40;2.00;;;;;;;;;;5013877;28;20140;-71
2022/08/26 02:21:06;;;;;;;4.72;2.35;;;;;;;;;;5013558;28;20054;-72
2022/08/26 02:23:32;;;;;;;6.28;2.20;;;;;;;;;;5012414;28;20057;-72
2022/08/26 02:26:07;;;;;;;5.45;2.08;;;;;;;;;;5004048;28;20054;-70
2022/08/26 02:28:43;;;;;;;4.95;2.20;;;;;;;;;;5012259;28;20110;-72
2022/08/26 02:31:09;;;;;;;4.53;2.30;;;;;;;;;;5009681;28;20053;-74
2022/08/26 02:33:35;;;;;;;6.40;2.42;;;;;;;;;;4993178;28;20046;-72
2022/08/26 02:36:01;;;;;;;6.63;2.10;;;;;;;;;;4992032;28;20444;-71
2022/08/26 02:38:28;;;;;;;7.05;2.15;;;;;;;;;;4991565;28;20050;-71
2022/08/26 02:40:54;;;;;;;5.82;2.28;;;;;;;;;;4991698;28;20057;-73
2022/08/26 02:43:19;;;;;;;6.05;2.28;;;;;;;;;;4992496;28;20046;-72
2022/08/26 02:45:46;;;;;;;9.65;2.47;;;;;;;;;;4993173;28;20129;-74
2022/08/26 02:48:17;;;;;;;6.43;2.50;;;;;;;;;;4993332;28;20093;-72
2022/08/26 02:50:44;;;;;;;6.80;2.10;;;;;;;;;;4992267;28;20113;-72
2022/08/26 02:53:10;;;;;;;10.73;2.90;;;;;;;;;;4992189;28;20105;-71
2022/08/26 02:55:37;;;;;;;8.15;2.50;;;;;;;;;;4991760;28;20482;-72
2022/08/26 02:58:03;;;;;;;5.07;2.45;;;;;;;;;;4992071;28;20061;-71
2022/08/26 03:00:30;;;;;;;7.10;2.35;;;;;;;;;;4992915;28;20046;-71
2022/08/26 03:02:57;;;;;;;4.82;2.17;;;;;;;;;;4993348;28;20054;-71
2022/08/26 03:05:24;;;;;;;6.88;2.10;;;;;;;;;;4993683;28;20551;-71
2022/08/26 03:07:50;;;;;;;7.03;2.50;;;;;;;;;;4994536;28;20046;-71
2022/08/26 03:10:18;;;;;;;4.75;2.20;;;;;;;;;;4976388;28;20047;-71
2022/08/26 03:12:44;;;;;;;7.55;2.22;;;;;;;;;;4993851;28;20133;-72
2022/08/26 03:15:11;;;;;;;13.95;2.40;;;;;;;;;;4992380;28;20042;-71
2022/08/26 03:17:37;;;;;;;6.75;2.45;;;;;;;;;;5005240;28;20046;-70
2022/08/26 03:20:08;;;;;;;7.25;2.20;;;;;;;;;;5011867;28;20053;-70
2022/08/26 03:22:36;;;;;;;7.10;2.22;;;;;;;;;;5010823;28;20084;-70
2022/08/26 03:25:04;;;;;;;5.10;2.20;;;;;;;;;;5011516;28;20049;-72
2022/08/26 03:27:30;;;;;;;6.97;2.30;;;;;;;;;;5011920;28;20046;-73
2022/08/26 03:32:42;;;;;;;7.13;2.47;;;;;;;;;;5011556;28;20050;-70
2022/08/26 03:35:08;;;;;;;5.47;2.30;;;;;;;;;;5010626;28;20084;-71
2022/08/26 03:37:34;;;;;;;4.68;2.40;;;;;;;;;;5010889;28;20057;-70
2022/08/26 03:40:00;;;;;;;3.72;1.90;;;;;;;;;;5010307;28;20053;-70
2022/08/26 03:42:26;;;;;;;5.05;2.20;;;;;;;;;;5011365;28;20050;-71
2022/08/26 03:44:52;;;;;;;8.77;2.40;;;;;;;;;;5012550;28;20457;-73
2022/08/26 03:47:18;;;;;;;5.03;2.10;;;;;;;;;;5012135;28;20049;-71
2022/08/26 03:49:43;;;;;;;4.10;2.28;;;;;;;;;;5012638;28;20050;-70
2022/08/26 03:52:09;;;;;;;7.63;2.53;;;;;;;;;;4993187;28;20429;-71
2022/08/26 03:54:35;;;;;;;7.28;2.45;;;;;;;;;;4992479;28;20053;-70
2022/08/26 03:57:01;;;;;;;7.68;2.47;;;;;;;;;;4991459;28;20050;-70
2022/08/26 03:59:27;;;;;;;6.25;2.50;;;;;;;;;;4991495;28;20080;-70
2022/08/26 04:01:53;;;;;;;6.22;2.42;;;;;;;;;;4993030;28;20061;-71
2022/08/26 04:04:19;;;;;;;5.32;2.42;;;;;;;;;;4994163;28;20116;-75
2022/08/26 04:06:45;;;;;;;7.60;2.45;;;;;;;;;;4976628;28;20557;-71
2022/08/26 04:09:16;;;;;;;5.10;2.00;;;;;;;;;;4993118;28;20055;-71
2022/08/26 04:11:44;;;;;;;8.60;2.33;;;;;;;;;;4993282;28;20058;-72
2022/08/26 04:14:17;;;;;;;11.82;2.20;;;;;;;;;;4996652;28;20465;-72
2022/08/26 04:16:44;;;;;;;9.55;2.28;;;;;;;;;;4995944;28;20051;-70
2022/08/26 04:19:12;;;;;;;9.25;1.98;;;;;;;;;;4994717;28;20051;-70
2022/08/26 04:21:39;;;;;;;8.23;2.60;;;;;;;;;;5003881;28;20053;-72
2022/08/26 04:24:07;;;;;;;8.77;2.20;;;;;;;;;;5013342;28;20042;-70
2022/08/26 04:26:36;;;;;;;13.82;2.42;;;;;;;;;;5014145;28;20450;-72
2022/08/26 04:29:12;;;;;;;9.63;2.35;;;;;;;;;;5013755;28;20069;-71
2022/08/26 04:31:38;;;;;;;5.03;1.95;;;;;;;;;;4993549;28;20058;-71
2022/08/26 04:34:05;;;;;;;4.65;2.38;;;;;;;;;;5014986;28;20061;-73
2022/08/26 04:36:31;;;;;;;7.85;2.03;;;;;;;;;;4996778;28;20091;-72
2022/08/26 04:38:59;;;;;;;10.02;2.78;;;;;;;;;;5015169;28;20068;-71
2022/08/26 04:41:25;;;;;;;4.50;2.50;;;;;;;;;;5009080;28;20054;-70
2022/08/26 04:43:51;;;;;;;7.10;2.30;;;;;;;;;;4995028;28;20526;-70
2022/08/26 04:46:21;;;;;;;5.97;2.38;;;;;;;;;;4995114;28;20073;-69
2022/08/26 04:48:49;;;;;;;9.27;2.50;;;;;;;;;;4995703;28;20054;-72
2022/08/26 04:51:15;;;;;;;6.85;2.33;;;;;;;;;;4994933;28;20054;-71
2022/08/26 04:53:42;;;;;;;6.35;2.20;;;;;;;;;;4995426;28;20042;-75
2022/08/26 04:56:08;;;;;;;8.70;2.20;;;;;;;;;;4994650;28;20054;-70
2022/08/26 04:58:34;;;;;;;6.50;2.28;;;;;;;;;;4996441;28;20050;-72
2022/08/26 05:01:00;;;;;;;5.75;2.35;;;;;;;;;;4995171;28;20376;-72
2022/08/26 05:03:26;;;;;;;5.75;2.35;;;;;;;;;;4996169;28;20133;-71
2022/08/26 05:05:53;;;;;;;6.60;2.47;;;;;;;;;;4995151;28;20053;-71
2022/08/26 05:08:21;;;;;;;5.82;2.25;;;;;;;;;;4995842;28;20482;-72
2022/08/26 05:10:53;;;;;;;6.13;2.15;;;;;;;;;;4995158;28;20053;-76
2022/08/26 05:13:20;;;;;;;6.38;2.42;;;;;;;;;;4995763;28;20197;-72
2022/08/26 05:15:46;;;;;;;11.73;2.40;;;;;;;;;;4999615;28;20513;-71
2022/08/26 05:18:15;;;;;;;5.60;2.28;;;;;;;;;;5014436;28;20054;-72
2022/08/26 05:20:43;;;;;;;10.63;2.50;;;;;;;;;;4995193;28;20070;-69
2022/08/26 05:23:09;;;;;;;8.45;2.28;;;;;;;;;;4996030;28;20111;-70
2022/08/26 05:25:40;;;;;;;8.35;2.72;;;;;;;;;;4995286;28;20130;-71
2022/08/26 05:28:07;;;;;;;7.63;2.55;;;;;;;;;;4995670;28;20072;-72
2022/08/26 05:30:34;;;;;;;5.05;2.10;;;;;;;;;;4977278;28;20050;-71
2022/08/26 05:33:00;;;;;;;5.95;2.65;;;;;;;;;;4993861;28;20055;-72
2022/08/26 05:35:30;;;;;;;7.22;2.47;;;;;;;;;;4993306;28;20066;-71
2022/08/26 05:37:58;;;;;;;6.57;2.13;;;;;;;;;;4992551;28;20128;-72
2022/08/26 05:40:24;;;;;;;11.20;2.72;;;;;;;;;;4992896;28;20428;-72
2022/08/26 05:42:51;;;;;;;9.18;2.70;;;;;;;;;;4994354;28;20563;-71
2022/08/26 05:45:18;;;;;;;7.47;2.78;;;;;;;;;;4995736;28;20054;-73
2022/08/26 05:47:45;;;;;;;4.75;2.20;;;;;;;;;;4994173;28;20060;-71
2022/08/26 05:50:10;;;;;;;7.70;2.58;;;;;;;;;;4994677;28;20419;-72
2022/08/26 05:52:36;;;;;;;6.25;2.30;;;;;;;;;;4993658;28;20169;-71
2022/08/26 05:55:03;;;;;;;5.20;2.20;;;;;;;;;;4992445;28;20133;-71
2022/08/26 05:57:29;;;;;;;5.07;2.45;;;;;;;;;;4976293;28;20121;-72
2022/08/26 05:59:55;;;;;;;11.02;2.70;;;;;;;;;;4994117;28;20069;-71
2022/08/26 06:02:22;;;;;;;9.25;2.80;;;;;;;;;;4993296;28;20050;-72
2022/08/26 06:04:48;;;;;;;10.05;2.20;;;;;;;;;;4994288;28;20050;-71
2022/08/26 06:07:15;;;;;;;5.35;2.45;;;;;;;;;;4993847;28;20078;-71
2022/08/26 06:09:42;;;;;;;6.78;2.45;;;;;;;;;;4993263;28;20097;-72
2022/08/26 06:12:08;;;;;;;6.80;2.50;;;;;;;;;;4993316;28;20042;-72
2022/08/26 06:14:34;;;;;;;4.95;2.33;;;;;;;;;;4993217;28;20101;-72
2022/08/26 06:17:00;;;;;;;10.57;2.38;;;;;;;;;;5011013;28;20128;-70
2022/08/26 06:19:27;;;;;;;6.90;2.85;;;;;;;;;;5013378;28;20136;-71
2022/08/26 06:21:53;;;;;;;7.95;2.30;;;;;;;;;;4995493;28;20045;-73
2022/08/26 06:27:17;;;;;;;7.53;2.53;;;;;;;;;;4972147;28;20129;-70
2022/08/26 06:29:43;;;;;;;8.32;2.55;;;;;;;;;;4971772;28;20125;-70
2022/08/26 06:32:09;;;;;;;7.80;2.65;;;;;;;;;;4971133;28;20050;-70
2022/08/26 06:34:35;;;;;;;5.65;2.70;;;;;;;;;;4970621;28;20209;-71
2022/08/26 06:37:02;;;;;;;5.78;2.90;;;;;;;;;;4970359;28;20495;-73
2022/08/26 06:39:28;;;;;;;10.00;2.63;;;;;;;;;;4970557;28;20528;-73
2022/08/26 06:41:55;;;;;;;6.18;2.50;;;;;;;;;;4970558;28;20846;-71
2022/08/26 06:44:22;;;;;;;19.60;2.67;;;;;;;;;;4972085;28;20409;-70
2022/08/26 06:46:47;;;;;;;6.75;2.63;;;;;;;;;;4972614;28;20062;-73
2022/08/26 06:49:13;;;;;;;11.63;2.72;;;;;;;;;;4970401;28;20063;-70
2022/08/26 06:51:40;;;;;;;8.77;2.63;;;;;;;;;;4970242;28;20047;-71
2022/08/26 06:54:07;;;;;;;10.75;2.63;;;;;;;;;;4969752;28;20049;-73
2022/08/26 06:56:39;;;;;;;14.18;2.72;;;;;;;;;;4970951;28;20063;-72
2022/08/26 06:59:07;;;;;;;6.05;2.50;;;;;;;;;;4957635;28;20138;-72
2022/08/26 07:01:37;;;;;;;6.95;2.58;;;;;;;;;;4970662;28;20057;-75
2022/08/26 07:04:05;;;;;;;9.50;2.88;;;;;;;;;;5012591;28;20433;-72
2022/08/26 07:06:36;;;;;;;7.43;2.92;;;;;;;;;;5014490;28;20057;-70
2022/08/26 07:09:04;;;;;;;7.32;2.67;;;;;;;;;;5015253;28;20099;-72
2022/08/26 07:11:32;;;;;;;8.02;2.53;;;;;;;;;;5014845;28;20069;-73
2022/08/26 07:13:58;;;;;;;10.80;2.83;;;;;;;;;;5013623;28;20491;-72
2022/08/26 07:16:26;;;;;;;8.32;2.92;;;;;;;;;;4976510;28;20050;-70
2022/08/26 07:18:53;;;;;;;11.90;3.00;;;;;;;;;;4994403;28;20054;-70
2022/08/26 07:21:19;;;;;;;11.75;3.03;;;;;;;;;;4994037;28;20525;-72
2022/08/26 07:23:47;;;;;;;14.73;3.20;;;;;;;;;;4992347;28;20042;-73
2022/08/26 07:26:26;;;;;;;7.05;3.00;;;;;;;;;;4991533;28;20050;-72
2022/08/26 07:28:54;;;;;;;9.38;3.17;;;;;;;;;;4991845;28;20050;-72
2022/08/26 07:31:24;;;;;;;6.82;2.40;;;;;;;;;;4996854;28;20058;-75
2022/08/26 07:33:50;;;;;;;9.50;3.28;;;;;;;;;;5012190;28;20092;-74
2022/08/26 07:36:17;;;;;;;11.93;2.92;;;;;;;;;;5013070;28;20122;-71
2022/08/26 07:38:44;;;;;;;7.93;2.50;;;;;;;;;;5012802;28;20132;-72
2022/08/26 07:41:12;;;;;;;9.90;3.30;;;;;;;;;;5012770;28;20080;-72
2022/08/26 07:43:38;;;;;;;10.35;3.17;;;;;;;;;;5013524;28;20121;-73
2022/08/26 07:46:06;;;;;;;9.48;2.83;;;;;;;;;;5013351;28;20072;-71
2022/08/26 07:48:32;;;;;;;9.75;2.70;;;;;;;;;;5008028;28;20046;-73
2022/08/26 07:50:59;;;;;;;10.13;3.38;;;;;;;;;;5013269;28;20045;-73
2022/08/26 07:53:25;;;;;;;8.73;2.40;;;;;;;;;;5006843;28;20050;-73
2022/08/26 07:55:51;;;;;;;12.05;3.03;;;;;;;;;;4996083;28;20046;-72
2022/08/26 07:58:17;;;;;;;7.68;2.70;;;;;;;;;;4996539;28;20057;-73
2022/08/26 08:00:44;;;;;;;12.27;2.95;;;;;;;;;;4995988;28;20070;-72
2022/08/26 08:03:10;;;;;;;11.10;3.28;;;;;;;;;;4996013;28;20607;-74
2022/08/26 08:05:36;;;;;;;10.55;2.95;;;;;;;;;;4997223;28;20050;-73
2022/08/26 08:08:05;;;;;;;10.30;3.22;;;;;;;;;;4996749;28;20561;-76
2022/08/26 08:10:33;;;;;;;6.20;2.67;;;;;;;;;;4992786;28;20161;-73
2022/08/26 08:12:59;;;;;;;6.45;3.00;;;;;;;;;;4991808;28;20085;-74
2022/08/26 08:15:27;;;;;;;9.50;2.90;;;;;;;;;;4991745;28;20050;-72
2022/08/26 08:17:55;;;;;;;8.70;2.83;;;;;;;;;;4991652;28;20046;-73
2022/08/26 08:20:21;;;;;;;9.52;2.90;;;;;;;;;;4991492;28;20057;-74
2022/08/26 08:22:48;;;;;;;13.05;2.60;;;;;;;;;;4994878;28;20042;-73
2022/08/26 08:25:14;;;;;;;5.88;2.42;;;;;;;;;;4996023;28;20388;-75
2022/08/26 08:27:41;;;;;;;9.63;2.40;;;;;;;;;;4994279;28;20689;-74
2022/08/26 08:30:09;;;;;;;10.02;2.58;;;;;;;;;;4991690;28;20047;-70
2022/08/26 08:32:38;;;;;;;9.10;2.80;;;;;;;;;;4990613;28;20066;-72
2022/08/26 08:35:07;;;;;;;7.60;2.35;;;;;;;;;;4990799;28;20125;-72
2022/08/26 08:37:34;;;;;;;8.00;2.30;;;;;;;;;;4999814;28;20046;-72
2022/08/26 08:39:59;;;;;;;9.35;2.70;;;;;;;;;;4999459;28;20085;-72
2022/08/26 08:42:36;;;;;;;7.55;2.88;;;;;;;;;;4973642;28;20050;-72
2022/08/26 08:45:12;;;;;;;8.07;2.83;;;;;;;;;;4973591;28;20096;-75
2022/08/26 08:47:47;;;;;;;6.35;2.42;;;;;;;;;;4997037;28;20050;-72
2022/08/26 08:50:18;;;;;;;6.97;2.53;;;;;;;;;;5013201;28;20050;-74
2022/08/26 08:52:52;;;;;;;8.65;2.47;;;;;;;;;;5011471;28;20484;-72
2022/08/26 08:55:18;;;;;;;8.75;2.45;;;;;;;;;;5009766;28;20092;-72
2022/08/26 08:58:08;;;;;;;6.72;2.92;;;;;;;;;;4994207;28;20403;-73
2022/08/26 09:00:52;;;;;;;7.38;2.97;;;;;;;;;;5014640;28;20058;-73
2022/08/26 09:03:49;;;;;;;8.38;3.05;;;;;;;;;;5017184;28;20081;-74
2022/08/26 09:06:19;;;;;;;7.57;2.88;;;;;;;;;;5014642;28;20100;-70
2022/08/26 09:08:48;;;;;;;8.98;3.60;;;;;;;;;;5013395;28;20510;-72
2022/08/26 09:11:15;;;;;;;7.03;3.15;;;;;;;;;;5013512;28;20088;-73
2022/08/26 09:13:52;;;;;;;6.38;2.65;;;;;;;;;;5013190;28;20042;-73
2022/08/26 09:16:30;;;;;;;11.15;2.78;;;;;;;;;;5014109;28;20050;-74
2022/08/26 09:19:04;;;;;;;10.73;2.78;;;;;;;;;;5013838;28;20068;-73
2022/08/26 09:21:31;;;;;;;9.50;2.95;;;;;;;;;;5002798;28;20104;-74
2022/08/26 09:23:58;;;;;;;7.88;2.92;;;;;;;;;;4994221;28;20054;-73
2022/08/26 09:26:25;;;;;;;9.52;2.70;;;;;;;;;;4993851;28;20518;-73
2022/08/26 09:29:00;;;;;;;7.97;2.70;;;;;;;;;;4994314;28;20486;-74
2022/08/26 09:31:32;;;;;;;9.77;2.88;;;;;;;;;;4994374;28;20146;-72
2022/08/26 09:34:18;;;;;;;5.75;2.63;;;;;;;;;;4996529;28;20047;-73
2022/08/26 09:36:58;;;;;;;12.27;2.67;;;;;;;;;;5012339;28;20054;-76
2022/08/26 09:39:27;;;;;;;9.27;2.55;;;;;;;;;;5014625;28;20060;-77
2022/08/26 09:42:28;;;;;;;10.50;2.50;;;;;;;;;;5015039;28;20082;-73
2022/08/26 09:45:05;;;;;;;10.55;3.00;;;;;;;;;;5012748;28;20081;-73
2022/08/26 09:47:44;;;;;;;11.80;3.00;;;;;;;;;;5012756;28;20050;-72
2022/08/26 09:50:10;;;;;;;6.85;2.47;;;;;;;;;;5014990;28;20097;-73
2022/08/26 09:52:36;;;;;;;8.75;2.90;;;;;;;;;;5015395;28;20130;-73
2022/08/26 09:55:11;;;;;;;9.63;3.33;;;;;;;;;;5013036;28;20211;-73
2022/08/26 09:57:49;;;;;;;7.47;2.90;;;;;;;;;;5013267;28;20086;-71
2022/08/26 10:00:23;;;;;;;8.55;2.55;;;;;;;;;;5012900;28;20416;-73
2022/08/26 10:02:50;;;;;;;8.60;3.20;;;;;;;;;;5013644;28;20050;-74
2022/08/26 10:05:27;;;;;;;9.15;3.03;;;;;;;;;;5001020;28;20043;-73
2022/08/26 10:07:53;;;;;;;9.85;3.05;;;;;;;;;;4993704;28;20051;-72
2022/08/26 10:10:23;;;;;;;8.48;2.80;;;;;;;;;;4990995;28;20047;-73
2022/08/26 10:12:58;;;;;;;7.80;2.85;;;;;;;;;;4994372;28;20101;-75
2022/08/26 10:15:26;;;;;;;6.90;2.97;;;;;;;;;;4994634;28;20060;-74
2022/08/26 10:18:23;;;;;;;5.95;2.47;;;;;;;;;;4975132;28;20522;-73
2022/08/26 10:20:59;;;;;;;13.50;2.70;;;;;;;;;;4998530;28;20141;-74
2022/08/26 10:23:29;;;;;;;7.57;3.33;;;;;;;;;;4992915;28;20499;-71
2022/08/26 10:25:58;;;;;;;8.35;3.05;;;;;;;;;;4975582;28;20072;-71
2022/08/26 10:29:05;;;;;;;8.30;2.88;;;;;;;;;;4996778;28;20046;-71
2022/08/26 10:31:39;;;;;;;9.93;3.05;;;;;;;;;;4968941;28;20161;-71
2022/08/26 10:34:05;;;;;;;8.05;2.70;;;;;;;;;;4977951;28;20051;-72
2022/08/26 10:36:49;;;;;;;7.95;2.65;;;;;;;;;;5001061;28;20088;-72
2022/08/26 10:39:30;;;;;;;4.20;2.40;;;;;;;;;;5005314;28;20054;-71
2022/08/26 10:42:02;;;;;;;7.10;2.50;;;;;;;;;;4997472;28;20042;-71
2022/08/26 10:44:33;;;;;;;4.63;2.30;;;;;;;;;;4996960;28;20074;-71
2022/08/26 10:47:08;;;;;;;6.38;2.58;;;;;;;;;;4978846;28;20050;-72
2022/08/26 10:49:34;;;;;;;6.68;2.70;;;;;;;;;;4995590;28;20196;-72
2022/08/26 10:52:16;;;;;;;4.57;2.38;;;;;;;;;;4993838;28;20125;-73
2022/08/26 10:54:45;;;;;;;7.22;2.28;;;;;;;;;;4993141;28;20121;-73
2022/08/26 10:57:28;;;;;;;12.25;2.33;;;;;;;;;;4995341;28;20046;-74
2022/08/26 11:03:02;;;;;;;6.68;2.20;;;;;;;;;;4995264;28;20046;-75
2022/08/26 11:05:28;;;;;;;7.82;2.58;;;;;;;;;;4994152;28;20051;-75
2022/08/26 11:08:32;;;;;;;6.00;2.22;;;;;;;;;;4993629;28;20049;-74
2022/08/26 11:10:59;;;;;;;7.03;2.30;;;;;;;;;;4913417;29;20051;-73
2022/08/26 11:13:56;;;;;;;5.20;2.20;;;;;;;;;;4927703;29;20048;-73
2022/08/26 11:16:43;;;;;;;11.38;2.58;;;;;;;;;;4932387;29;20527;-73
2022/08/26 11:19:29;;;;;;;4.45;1.73;;;;;;;;;;4932069;29;20134;-72
2022/08/26 11:22:06;;;;;;;8.90;2.15;;;;;;;;;;4894063;29;20052;-71
2022/08/26 11:24:37;;;;;;;7.32;2.47;;;;;;;;;;4931373;29;20387;-72
2022/08/26 11:27:05;;;;;;;9.05;2.35;;;;;;;;;;4931346;29;20143;-72
2022/08/26 11:29:54;;;;;;;6.57;2.00;;;;;;;;;;4931743;29;20123;-71
2022/08/26 11:32:43;;;;;;;8.65;2.10;;;;;;;;;;4932715;29;20442;-73
2022/08/26 11:35:31;;;;;;;7.78;2.25;;;;;;;;;;4930678;29;20059;-74
2022/08/26 11:38:01;;;;;;;5.57;2.20;;;;;;;;;;4915379;29;20064;-76
2022/08/26 11:40:31;;;;;;;11.93;2.78;;;;;;;;;;4931177;29;20061;-74
2022/08/26 11:43:00;;;;;;;7.55;2.00;;;;;;;;;;5003658;28;20051;-73
2022/08/26 11:45:30;;;;;;;7.25;1.70;;;;;;;;;;4993804;28;20043;-72
2022/08/26 11:47:56;;;;;;;6.10;2.05;;;;;;;;;;4994110;28;20046;-73
2022/08/26 11:50:25;;;;;;;3.50;1.75;;;;;;;;;;4992884;28;20054;-73
2022/08/26 11:53:00;;;;;;;4.65;1.90;;;;;;;;;;4992204;28;20185;-75
2022/08/26 11:55:28;;;;;;;5.30;2.08;;;;;;;;;;4975081;28;20042;-75
2022/08/26 11:57:59;;;;;;;3.33;1.70;;;;;;;;;;4992062;28;20065;-73
2022/08/26 12:00:29;;;;;;;6.28;1.83;;;;;;;;;;4991712;28;20077;-73
2022/08/26 12:02:58;;;;;;;6.10;1.80;;;;;;;;;;4992291;28;20050;-73
2022/08/26 12:05:46;;;;;;;6.63;1.52;;;;;;;;;;5011251;28;20042;-74
2022/08/26 12:08:20;;;;;;;4.13;1.60;;;;;;;;;;5010962;28;20137;-73
2022/08/26 12:10:47;;;;;;;5.05;1.90;;;;;;;;;;5011140;28;20054;-74
2022/08/26 12:13:25;;;;;;;7.47;1.90;;;;;;;;;;5011580;28;20513;-73
2022/08/26 12:15:57;;;;;;;3.42;1.67;;;;;;;;;;5010546;28;20050;-73
2022/08/26 12:18:32;;;;;;;9.18;2.03;;;;;;;;;;4994035;28;20062;-72
2022/08/26 12:21:08;;;;;;;4.43;1.58;;;;;;;;;;4990581;28;20038;-73
2022/08/26 12:23:40;;;;;;;8.20;1.88;;;;;;;;;;5010422;28;20172;-73
2022/08/26 12:26:09;;;;;;;7.78;2.50;;;;;;;;;;5010380;28;20050;-76
2022/08/26 12:28:47;;;;;;;8.85;2.10;;;;;;;;;;5010487;28;20053;-74
2022/08/26 12:31:24;;;;;;;11.15;4.22;;;;;;;;;;5010381;28;20439;-74
2022/08/26 12:33:51;;;;;;;11.75;2.63;;;;;;;;;;5012569;28;20133;-74
2022/08/26 12:36:27;;;;;;;7.55;2.58;;;;;;;;;;5014269;28;20056;-73
2022/08/26 12:38:54;;;;;;;8.88;1.90;;;;;;;;;;5013685;28;20132;-73
2022/08/26 12:41:42;;;;;;;7.30;2.50;;;;;;;;;;5013767;28;20551;-73
2022/08/26 12:44:08;;;;;;;6.30;1.75;;;;;;;;;;5015067;28;20121;-75
2022/08/26 12:46:34;;;;;;;6.85;2.55;;;;;;;;;;5015695;28;20097;-76
2022/08/26 12:49:01;;;;;;;8.13;2.00;;;;;;;;;;5015311;28;20426;-74
2022/08/26 12:51:31;;;;;;;6.15;2.08;;;;;;;;;;5017185;28;20050;-75
2022/08/26 12:53:57;;;;;;;7.80;2.08;;;;;;;;;;5013992;28;20104;-74
2022/08/26 12:56:26;;;;;;;12.15;2.33;;;;;;;;;;5014749;28;20057;-76
2022/08/26 12:59:04;;;;;;;6.60;1.75;;;;;;;;;;5015220;28;20060;-76
2022/08/26 13:01:56;;;;;;;7.15;2.20;;;;;;;;;;5014781;28;20057;-73
2022/08/26 13:04:36;;;;;;;11.30;2.00;;;;;;;;;;5011171;28;20060;-73
2022/08/26 13:07:17;;;;;;;7.47;1.73;;;;;;;;;;5014945;28;20348;-74
2022/08/26 13:09:43;;;;;;;4.65;2.00;;;;;;;;;;5015611;28;20049;-75
2022/08/26 13:12:10;;;;;;;10.07;2.08;;;;;;;;;;5015453;28;20133;-74
2022/08/26 13:14:36;;;;;;;8.38;1.60;;;;;;;;;;5020841;28;20053;-75
2022/08/26 13:17:02;;;;;;;5.80;1.73;;;;;;;;;;5019870;28;20050;-74
2022/08/26 13:19:28;;;;;;;5.97;1.83;;;;;;;;;;4998324;28;20067;-73
2022/08/26 13:21:56;;;;;;;7.15;1.70;;;;;;;;;;5014611;28;20415;-76
2022/08/26 13:24:31;;;;;;;11.18;2.15;;;;;;;;;;5015963;28;20050;-76
2022/08/26 13:26:58;;;;;;;6.88;1.80;;;;;;;;;;5015985;28;20050;-75
2022/08/26 13:29:24;;;;;;;8.02;2.25;;;;;;;;;;5014354;28;20045;-74
2022/08/26 13:31:50;;;;;;;7.80;1.65;;;;;;;;;;5015258;28;20587;-73
2022/08/26 13:34:18;;;;;;;8.35;2.05;;;;;;;;;;5016355;28;20054;-75
2022/08/26 13:36:49;;;;;;;8.70;1.85;;;;;;;;;;5016282;28;20618;-74
2022/08/26 13:39:16;;;;;;;7.32;1.83;;;;;;;;;;5014363;28;20056;-74
2022/08/26 13:41:42;;;;;;;5.05;1.90;;;;;;;;;;4998351;28;20088;-74
2022/08/26 13:44:09;;;;;;;8.23;1.90;;;;;;;;;;5014586;28;20060;-76
2022/08/26 13:46:35;;;;;;;8.02;1.85;;;;;;;;;;5001384;28;20042;-74
2022/08/26 13:49:01;;;;;;;6.53;1.75;;;;;;;;;;4996911;28;20049;-73
2022/08/26 13:51:29;;;;;;;5.85;1.75;;;;;;;;;;4995746;28;20404;-75
2022/08/26 13:53:56;;;;;;;6.00;1.70;;;;;;;;;;4994781;28;20057;-74
2022/08/26 13:56:23;;;;;;;17.25;2.60;;;;;;;;;;4995457;28;20042;-70
2022/08/26 13:58:49;;;;;;;6.63;1.60;;;;;;;;;;4995043;28;20065;-75
2022/08/26 14:01:16;;;;;;;6.70;1.55;;;;;;;;;;4994983;28;20062;-74
2022/08/26 14:03:42;;;;;;;8.23;2.00;;;;;;;;;;4995800;28;20050;-73
2022/08/26 14:06:09;;;;;;;7.38;2.17;;;;;;;;;;4995698;28;20133;-75
2022/08/26 14:08:35;;;;;;;4.00;1.50;;;;;;;;;;4995241;28;20047;-75
2022/08/26 14:11:01;;;;;;;6.07;2.13;;;;;;;;;;4994477;28;20042;-75
2022/08/26 14:13:27;;;;;;;5.95;1.80;;;;;;;;;;4995623;28;20080;-74
2022/08/26 14:15:53;;;;;;;7.05;2.25;;;;;;;;;;4995748;28;20102;-77
2022/08/26 14:18:25;;;;;;;4.97;1.60;;;;;;;;;;4996147;28;20093;-75
2022/08/26 14:20:51;;;;;;;5.63;1.65;;;;;;;;;;5012133;28;20049;-76
2022/08/26 14:23:18;;;;;;;5.18;1.67;;;;;;;;;;5014670;28;20133;-74
2022/08/26 14:25:44;;;;;;;5.65;2.05;;;;;;;;;;5016168;28;20073;-74
2022/08/26 14:28:10;;;;;;;5.15;1.50;;;;;;;;;;5016208;28;20511;-75
2022/08/26 14:30:39;;;;;;;8.25;1.75;;;;;;;;;;5015956;28;20295;-76
2022/08/26 14:33:10;;;;;;;4.75;1.60;;;;;;;;;;4997741;28;20070;-76
2022/08/26 14:35:36;;;;;;;8.43;1.77;;;;;;;;;;4995367;28;20053;-75
2022/08/26 14:38:02;;;;;;;7.20;1.73;;;;;;;;;;4995807;28;20054;-75
2022/08/26 14:40:30;;;;;;;6.10;1.80;;;;;;;;;;4995861;28;20046;-74
2022/08/26 14:42:56;;;;;;;4.88;1.77;;;;;;;;;;4994777;28;20050;-77
2022/08/26 14:45:23;;;;;;;6.93;1.67;;;;;;;;;;4994640;28;20046;-75
2022/08/26 14:47:51;;;;;;;9.00;1.65;;;;;;;;;;4995402;28;20046;-73
2022/08/26 14:50:21;;;;;;;4.10;1.48;;;;;;;;;;4995057;28;20125;-75
2022/08/26 14:55:36;;;;;;;5.20;1.52;;;;;;;;;;4995301;28;20334;-75
2022/08/26 14:58:02;;;;;;;6.90;1.92;;;;;;;;;;4996208;28;20069;-75
2022/08/26 15:00:28;;;;;;;7.13;1.60;;;;;;;;;;4976741;28;20046;-75
2022/08/26 15:02:54;;;;;;;4.30;1.50;;;;;;;;;;4976331;28;20047;-75
2022/08/26 15:05:21;;;;;;;6.10;1.85;;;;;;;;;;4993624;28;20419;-73
2022/08/26 15:07:47;;;;;;;6.68;1.73;;;;;;;;;;4993688;28;20052;-73